createdAt,value
2022-08-29T00:02:06.546Z,16.83
2022-08-29T00:04:35.989Z,13.07
2022-08-29T00:07:03.827Z,15.82
2022-08-29T00:09:31.532Z,17.52
2022-08-29T00:11:59.159Z,12.10
2022-08-29T00:14:28.161Z,10.77
2022-08-29T00:16:55.819Z,13.60
2022-08-29T00:19:23.562Z,14.10
2022-08-29T00:21:51.197Z,13.32
2022-08-29T00:24:19.001Z,9.88
2022-08-29T00:26:46.664Z,15.50
2022-08-29T00:29:14.357Z,14.30
2022-08-29T00:31:43.356Z,11.38
2022-08-29T00:34:11.043Z,19.70
2022-08-29T00:36:38.645Z,12.57
2022-08-29T00:39:09.230Z,16.23
2022-08-29T00:41:37.297Z,11.88
2022-08-29T00:44:05.699Z,9.75
2022-08-29T00:46:48.761Z,12.40
2022-08-29T00:49:22.344Z,14.60
2022-08-29T00:51:50.044Z,11.00
2022-08-29T00:54:17.676Z,11.85
2022-08-29T00:56:45.842Z,10.93
2022-08-29T00:59:15.603Z,13.23
2022-08-29T01:01:43.685Z,12.25
2022-08-29T01:04:15.680Z,13.93
2022-08-29T01:06:44.060Z,12.02
2022-08-29T01:09:11.897Z,11.68
2022-08-29T01:11:56.991Z,12.43
2022-08-29T01:14:25.971Z,17.00
2022-08-29T01:16:56.496Z,15.70
2022-08-29T01:19:44.114Z,13.35
2022-08-29T01:22:17.268Z,13.00
2022-08-29T01:24:50.879Z,13.68
2022-08-29T01:27:19.907Z,13.00
2022-08-29T01:29:47.599Z,10.23
2022-08-29T01:32:15.587Z,10.32
2022-08-29T01:34:43.194Z,13.55
2022-08-29T01:37:12.221Z,13.00
2022-08-29T01:39:40.776Z,13.20
2022-08-29T01:42:11.106Z,12.55
2022-08-29T01:44:39.712Z,14.05
2022-08-29T01:47:08.077Z,15.85
2022-08-29T01:49:37.779Z,12.43
2022-08-29T01:52:08.601Z,11.65
2022-08-29T01:54:36.494Z,14.52
2022-08-29T01:57:04.355Z,15.55
2022-08-29T01:59:33.938Z,10.75
2022-08-29T02:02:03.300Z,11.15
2022-08-29T02:04:31.199Z,11.68
2022-08-29T02:06:58.899Z,16.73
2022-08-29T02:09:27.262Z,16.63
2022-08-29T02:11:55.322Z,16.33
2022-08-29T02:14:23.475Z,14.32
2022-08-29T02:16:52.809Z,15.75
2022-08-29T02:19:20.837Z,15.75
2022-08-29T02:21:52.388Z,16.23
2022-08-29T02:24:25.730Z,13.80
2022-08-29T02:26:54.204Z,12.98
2022-08-29T02:29:21.767Z,21.98
2022-08-29T02:31:49.766Z,13.43
2022-08-29T02:34:19.075Z,15.40
2022-08-29T02:36:48.985Z,13.70
2022-08-29T02:39:17.176Z,12.88
2022-08-29T02:41:44.890Z,14.80
2022-08-29T02:44:12.636Z,15.90
2022-08-29T02:46:40.348Z,19.50
2022-08-29T02:49:07.976Z,11.65
2022-08-29T02:51:37.003Z,13.50
2022-08-29T02:54:04.742Z,12.32
2022-08-29T02:56:32.347Z,18.45
2022-08-29T02:59:01.214Z,13.65
2022-08-29T03:01:28.894Z,13.57
2022-08-29T03:03:56.496Z,17.48
2022-08-29T03:06:24.204Z,16.60
2022-08-29T03:08:54.160Z,16.25
2022-08-29T03:11:23.232Z,12.30
2022-08-29T03:13:50.808Z,15.30
2022-08-29T03:16:19.088Z,16.15
2022-08-29T03:18:46.776Z,17.02
2022-08-29T03:21:19.619Z,17.67
2022-08-29T03:23:47.853Z,14.50
2022-08-29T03:26:16.883Z,16.70
2022-08-29T03:28:44.684Z,15.55
2022-08-29T03:31:12.488Z,16.55
2022-08-29T03:33:40.131Z,22.48
2022-08-29T03:36:14.374Z,21.05
2022-08-29T03:38:43.366Z,17.80
2022-08-29T03:41:11.259Z,21.27
2022-08-29T03:43:40.304Z,18.27
2022-08-29T03:46:08.371Z,21.55
2022-08-29T03:48:35.995Z,20.63
2022-08-29T03:51:03.949Z,19.38
2022-08-29T03:53:33.149Z,19.38
2022-08-29T03:56:02.812Z,21.60
2022-08-29T03:58:30.534Z,20.05
2022-08-29T04:00:59.851Z,23.13
2022-08-29T04:03:31.444Z,19.77
2022-08-29T04:05:59.483Z,20.75
2022-08-29T04:08:27.137Z,18.00
2022-08-29T04:10:54.716Z,17.10
2022-08-29T04:13:22.402Z,13.75
2022-08-29T04:15:50.249Z,14.02
2022-08-29T04:18:21.670Z,14.18
2022-08-29T04:20:50.688Z,14.57
2022-08-29T04:23:18.748Z,15.93
2022-08-29T04:25:46.369Z,15.57
2022-08-29T04:28:14.952Z,14.27
2022-08-29T04:30:51.617Z,13.20
2022-08-29T04:33:23.039Z,12.00
2022-08-29T04:35:50.952Z,12.43
2022-08-29T04:38:19.086Z,13.27
2022-08-29T04:40:47.335Z,13.93
2022-08-29T04:43:14.939Z,12.50
2022-08-29T04:45:43.365Z,11.57
2022-08-29T04:48:11.257Z,10.50
2022-08-29T04:50:40.339Z,8.57
2022-08-29T04:53:07.977Z,9.23
2022-08-29T04:55:35.580Z,7.50
2022-08-29T04:58:04.163Z,7.53
2022-08-29T05:00:31.849Z,6.90
2022-08-29T05:03:00.086Z,5.93
2022-08-29T05:05:28.808Z,6.22
2022-08-29T05:07:57.747Z,10.57
2022-08-29T05:10:26.176Z,5.80
2022-08-29T05:12:53.707Z,6.25
2022-08-29T05:15:21.406Z,5.00
2022-08-29T05:17:49.350Z,4.95
2022-08-29T05:20:16.944Z,5.25
2022-08-29T05:22:44.654Z,6.30
2022-08-29T05:25:17.988Z,5.55
2022-08-29T05:27:46.400Z,5.75
2022-08-29T05:30:14.153Z,5.05
2022-08-29T05:32:42.071Z,5.75
2022-08-29T05:35:09.976Z,4.85
2022-08-29T05:37:38.695Z,6.05
2022-08-29T05:40:06.723Z,7.40
2022-08-29T05:42:35.724Z,6.60
2022-08-29T05:45:04.645Z,5.63
2022-08-29T05:47:32.557Z,6.68
2022-08-29T05:50:00.390Z,5.47
2022-08-29T05:52:28.344Z,6.35
2022-08-29T05:54:55.955Z,5.72
2022-08-29T05:57:24.117Z,5.93
2022-08-29T05:59:53.860Z,5.93
2022-08-29T06:02:22.932Z,5.97
2022-08-29T06:04:50.942Z,5.95
2022-08-29T06:07:19.112Z,5.88
2022-08-29T06:09:46.752Z,5.22
2022-08-29T06:12:15.076Z,5.28
2022-08-29T06:14:50.144Z,5.95
2022-08-29T06:17:20.028Z,4.25
2022-08-29T06:19:50.429Z,4.75
2022-08-29T06:22:19.649Z,4.28
2022-08-29T06:24:47.380Z,3.53
2022-08-29T06:27:16.463Z,3.88
2022-08-29T06:29:44.104Z,3.92
2022-08-29T06:32:11.863Z,4.40
2022-08-29T06:34:41.132Z,3.80
2022-08-29T06:37:09.105Z,3.50
2022-08-29T06:39:36.695Z,3.45
2022-08-29T06:42:04.426Z,3.35
2022-08-29T06:44:32.095Z,2.67
2022-08-29T06:47:00.143Z,4.07
2022-08-29T06:49:27.941Z,3.05
2022-08-29T06:51:58.615Z,3.28
2022-08-29T06:54:27.854Z,3.08
2022-08-29T06:56:56.737Z,3.60
2022-08-29T06:59:24.643Z,3.10
2022-08-29T07:01:52.505Z,3.10
2022-08-29T07:04:20.957Z,3.45
2022-08-29T07:06:49.147Z,2.70
2022-08-29T07:09:18.318Z,3.30
2022-08-29T07:11:45.914Z,2.95
2022-08-29T07:14:14.126Z,3.08
2022-08-29T07:16:42.590Z,2.50
2022-08-29T07:19:11.017Z,3.08
2022-08-29T07:21:39.265Z,2.70
2022-08-29T07:24:07.158Z,3.60
2022-08-29T07:26:38.746Z,2.95
2022-08-29T07:29:08.064Z,3.20
2022-08-29T07:31:36.220Z,3.20
2022-08-29T07:34:04.047Z,2.90
2022-08-29T07:36:34.351Z,4.30
2022-08-29T07:39:03.083Z,2.67
2022-08-29T07:41:30.990Z,2.80
2022-08-29T07:43:59.953Z,2.92
2022-08-29T07:46:27.678Z,3.17
2022-08-29T07:48:55.532Z,3.33
2022-08-29T07:51:24.292Z,3.08
2022-08-29T07:53:52.324Z,3.00
2022-08-29T07:56:22.723Z,3.05
2022-08-29T07:58:52.891Z,3.20
2022-08-29T08:01:22.580Z,3.13
2022-08-29T08:03:52.681Z,3.28
2022-08-29T08:06:20.804Z,3.10
2022-08-29T08:08:49.080Z,2.60
2022-08-29T08:11:17.194Z,3.05
2022-08-29T08:13:44.865Z,2.75
2022-08-29T08:16:13.573Z,2.60
2022-08-29T08:18:43.313Z,2.90
2022-08-29T08:21:11.343Z,2.40
2022-08-29T08:23:39.799Z,2.60
2022-08-29T08:26:07.700Z,2.67
2022-08-29T08:28:35.606Z,2.47
2022-08-29T08:31:06.552Z,2.55
2022-08-29T08:33:35.210Z,2.33
2022-08-29T08:36:04.527Z,2.20
2022-08-29T08:38:32.343Z,2.20
2022-08-29T08:41:02.040Z,2.10
2022-08-29T08:43:34.810Z,2.40
2022-08-29T08:46:02.528Z,2.53
2022-08-29T08:48:37.344Z,2.78
2022-08-29T08:51:07.319Z,2.17
2022-08-29T08:53:37.111Z,2.33
2022-08-29T08:56:08.461Z,1.60
2022-08-29T08:58:38.903Z,1.90
2022-08-29T09:01:14.282Z,1.95
2022-08-29T09:03:57.338Z,1.67
2022-08-29T09:06:40.000Z,1.80
2022-08-29T09:09:12.740Z,1.75
2022-08-29T09:11:46.316Z,1.90
2022-08-29T09:14:20.528Z,1.52
2022-08-29T09:16:50.319Z,1.75
2022-08-29T09:19:18.215Z,1.55
2022-08-29T09:21:49.797Z,2.72
2022-08-29T09:24:21.808Z,1.75
2022-08-29T09:26:49.761Z,1.98
2022-08-29T09:29:21.019Z,1.73
2022-08-29T09:32:03.963Z,1.60
2022-08-29T09:34:56.949Z,1.60
2022-08-29T09:37:25.192Z,1.50
2022-08-29T09:39:54.938Z,1.67
2022-08-29T09:42:24.355Z,1.80
2022-08-29T09:44:56.624Z,1.50
2022-08-29T09:47:25.508Z,1.60
2022-08-29T09:50:11.099Z,1.88
2022-08-29T09:52:41.539Z,2.08
2022-08-29T09:55:29.142Z,1.90
2022-08-29T09:58:00.440Z,1.73
2022-08-29T10:00:29.647Z,2.10
2022-08-29T10:02:57.874Z,2.00
2022-08-29T10:05:36.983Z,2.00
2022-08-29T10:08:06.846Z,2.10
2022-08-29T10:10:36.419Z,1.70
2022-08-29T10:13:08.803Z,1.60
2022-08-29T10:15:50.430Z,2.58
2022-08-29T10:18:24.010Z,1.90
2022-08-29T10:20:55.573Z,2.15
2022-08-29T10:23:27.406Z,2.00
2022-08-29T10:25:56.079Z,2.35
2022-08-29T10:28:29.319Z,2.60
2022-08-29T10:31:00.540Z,2.58
2022-08-29T10:33:35.491Z,2.22
2022-08-29T10:36:07.094Z,2.80
2022-08-29T10:38:45.622Z,1.92
2022-08-29T10:41:20.116Z,5.00
2022-08-29T10:43:52.447Z,2.30
2022-08-29T10:46:32.917Z,2.45
2022-08-29T10:49:05.068Z,2.10
2022-08-29T10:51:34.721Z,2.00
2022-08-29T10:54:06.658Z,2.65
2022-08-29T10:56:35.888Z,2.05
2022-08-29T10:59:08.122Z,3.17
2022-08-29T11:01:38.537Z,2.35
2022-08-29T11:04:10.930Z,2.22
2022-08-29T11:06:40.655Z,1.85
2022-08-29T11:09:11.756Z,2.08
2022-08-29T11:11:41.489Z,1.92
2022-08-29T11:14:12.588Z,2.10
2022-08-29T11:16:42.722Z,3.47
2022-08-29T11:19:22.080Z,2.47
2022-08-29T11:21:55.542Z,4.55
2022-08-29T11:24:26.692Z,2.17
2022-08-29T11:26:58.966Z,1.88
2022-08-29T11:29:30.416Z,2.45
2022-08-29T11:32:00.895Z,1.92
2022-08-29T11:34:32.647Z,1.70
2022-08-29T11:37:19.013Z,1.80
2022-08-29T11:39:58.835Z,1.80
2022-08-29T11:45:24.938Z,1.40
2022-08-29T11:48:18.202Z,4.22
2022-08-29T11:50:46.082Z,2.10
2022-08-29T11:53:24.047Z,3.30
2022-08-29T11:56:06.522Z,2.00
2022-08-29T11:58:46.455Z,1.80
2022-08-29T12:01:34.278Z,2.10
2022-08-29T12:04:02.478Z,1.98
2022-08-29T12:06:37.038Z,2.42
2022-08-29T12:09:13.373Z,2.03
2022-08-29T12:12:00.469Z,3.20
2022-08-29T12:14:37.417Z,1.90
2022-08-29T12:17:06.609Z,1.83
2022-08-29T12:19:51.910Z,1.90
2022-08-29T12:25:22.805Z,1.88
2022-08-29T12:28:01.460Z,1.90
2022-08-29T12:30:32.142Z,1.80
2022-08-29T12:33:05.955Z,4.00
2022-08-29T12:35:45.648Z,2.65
2022-08-29T12:38:23.759Z,1.90
2022-08-29T12:40:57.912Z,2.00
2022-08-29T12:43:37.314Z,1.40
2022-08-29T12:46:15.784Z,2.08
2022-08-29T12:48:53.349Z,1.60
2022-08-29T12:51:32.833Z,1.80
2022-08-29T12:54:00.580Z,1.92
2022-08-29T12:56:28.292Z,1.80
2022-08-29T12:58:57.682Z,1.80
2022-08-29T13:01:29.823Z,2.15
2022-08-29T13:04:01.516Z,1.50
2022-08-29T13:06:29.238Z,5.75
2022-08-29T13:08:56.872Z,2.05
2022-08-29T13:11:26.473Z,2.40
2022-08-29T13:14:04.475Z,1.77
2022-08-29T13:16:33.759Z,1.70
2022-08-29T13:19:10.815Z,1.38
2022-08-29T13:21:39.341Z,1.70
2022-08-29T13:24:11.495Z,1.98
2022-08-29T13:26:41.555Z,1.40
2022-08-29T13:29:16.254Z,1.70
2022-08-29T13:31:45.435Z,1.65
2022-08-29T13:34:20.839Z,1.38
2022-08-29T13:36:50.424Z,1.60
2022-08-29T13:39:25.144Z,1.52
2022-08-29T13:42:08.464Z,1.58
2022-08-29T13:44:37.580Z,1.23
2022-08-29T13:47:13.493Z,2.00
2022-08-29T13:49:41.613Z,1.23
2022-08-29T13:52:10.264Z,3.22
2022-08-29T13:54:39.398Z,1.50
2022-08-29T13:57:08.012Z,1.10
2022-08-29T13:59:37.522Z,1.23
2022-08-29T14:02:09.047Z,1.20
2022-08-29T14:04:40.070Z,1.60
2022-08-29T14:07:08.620Z,1.40
2022-08-29T14:09:37.008Z,2.28
2022-08-29T14:12:05.175Z,1.40
2022-08-29T14:14:32.793Z,1.30
2022-08-29T14:17:00.754Z,1.30
2022-08-29T14:19:30.311Z,1.05
2022-08-29T14:21:59.059Z,1.20
2022-08-29T14:24:28.958Z,1.65
2022-08-29T14:27:01.073Z,1.23
2022-08-29T14:29:30.840Z,1.33
2022-08-29T14:31:58.782Z,1.13
2022-08-29T14:34:30.625Z,1.60
2022-08-29T14:37:01.153Z,3.90
2022-08-29T14:39:28.731Z,2.22
2022-08-29T14:41:56.428Z,1.40
2022-08-29T14:44:24.328Z,1.50
2022-08-29T14:46:52.588Z,1.55
2022-08-29T14:49:20.334Z,2.60
2022-08-29T14:51:48.604Z,2.05
2022-08-29T14:54:18.001Z,2.05
2022-08-29T14:56:50.117Z,1.40
2022-08-29T14:59:18.499Z,3.58
2022-08-29T15:01:52.664Z,1.90
2022-08-29T15:04:35.367Z,1.42
2022-08-29T15:07:05.327Z,1.45
2022-08-29T15:09:34.280Z,1.90
2022-08-29T15:12:01.922Z,3.28
2022-08-29T15:14:30.145Z,1.50
2022-08-29T15:16:57.720Z,1.60
2022-08-29T15:19:53.631Z,1.73
2022-08-29T15:22:13.762Z,1.63
2022-08-29T15:24:42.725Z,2.03
2022-08-29T15:27:10.692Z,1.38
2022-08-29T15:29:40.473Z,1.50
2022-08-29T15:32:08.264Z,1.85
2022-08-29T15:34:36.292Z,2.55
2022-08-29T15:37:04.765Z,5.95
2022-08-29T15:39:32.478Z,1.95
2022-08-29T15:42:02.361Z,1.35
2022-08-29T15:44:30.168Z,1.50
2022-08-29T15:46:58.576Z,1.45
2022-08-29T15:49:29.511Z,1.67
2022-08-29T15:51:57.707Z,1.38
2022-08-29T15:54:25.896Z,1.45
2022-08-29T15:56:54.315Z,2.47
2022-08-29T15:59:41.213Z,1.70
2022-08-29T16:02:11.343Z,1.52
2022-08-29T16:04:40.080Z,1.80
2022-08-29T16:07:07.686Z,1.75
2022-08-29T16:09:35.283Z,2.50
2022-08-29T16:12:02.921Z,2.75
2022-08-29T16:14:58.939Z,4.05
2022-08-29T16:17:19.557Z,4.22
2022-08-29T16:19:47.194Z,1.90
2022-08-29T16:22:14.789Z,1.70
2022-08-29T16:24:42.452Z,1.95
2022-08-29T16:27:10.474Z,1.60
2022-08-29T16:29:39.456Z,1.80
2022-08-29T16:32:07.665Z,1.80
2022-08-29T16:34:35.584Z,2.15
2022-08-29T16:37:03.411Z,1.92
2022-08-29T16:39:31.083Z,2.17
2022-08-29T16:42:01.717Z,1.90
2022-08-29T16:44:31.643Z,1.60
2022-08-29T16:47:01.435Z,1.70
2022-08-29T16:49:29.032Z,1.92
2022-08-29T16:51:57.472Z,1.70
2022-08-29T16:54:25.120Z,1.65
2022-08-29T16:56:53.136Z,1.85
2022-08-29T16:59:20.751Z,3.70
2022-08-29T17:01:49.511Z,1.83
2022-08-29T17:04:19.771Z,2.00
2022-08-29T17:06:48.142Z,3.00
2022-08-29T17:09:15.279Z,2.75
2022-08-29T17:11:41.920Z,1.90
2022-08-29T17:14:09.795Z,2.10
2022-08-29T17:16:38.300Z,1.92
2022-08-29T17:19:06.656Z,2.80
2022-08-29T17:21:35.780Z,3.15
2022-08-29T17:24:06.663Z,2.08
2022-08-29T17:26:34.414Z,2.28
2022-08-29T17:29:02.612Z,1.58
2022-08-29T17:31:31.020Z,1.75
2022-08-29T17:34:06.793Z,3.00
2022-08-29T17:36:36.698Z,1.83
2022-08-29T17:39:04.824Z,1.88
2022-08-29T17:41:32.734Z,1.60
2022-08-29T17:44:00.445Z,1.58
2022-08-29T17:46:29.479Z,3.08
2022-08-29T17:48:57.651Z,1.80
2022-08-29T17:51:25.703Z,1.63
2022-08-29T17:53:54.975Z,2.00
2022-08-29T17:56:27.520Z,1.70
2022-08-29T17:58:55.111Z,1.60
2022-08-29T18:01:22.707Z,1.88
2022-08-29T18:03:51.076Z,1.58
2022-08-29T18:06:19.815Z,1.70
2022-08-29T18:08:48.007Z,2.10
2022-08-29T18:11:18.348Z,2.00
2022-08-29T18:13:46.288Z,2.10
2022-08-29T18:16:14.707Z,2.50
2022-08-29T18:18:44.228Z,1.40
2022-08-29T18:21:16.430Z,1.80
2022-08-29T18:23:45.869Z,1.77
2022-08-29T18:26:14.764Z,1.90
2022-08-29T18:28:43.939Z,3.30
2022-08-29T18:31:12.560Z,1.58
2022-08-29T18:34:00.137Z,1.73
2022-08-29T18:36:28.036Z,1.80
2022-08-29T18:38:55.635Z,1.85
2022-08-29T18:41:23.200Z,1.98
2022-08-29T18:43:52.300Z,5.07
2022-08-29T18:46:20.104Z,1.70
2022-08-29T18:48:47.727Z,1.83
2022-08-29T18:51:15.623Z,1.77
2022-08-29T18:53:43.449Z,2.00
2022-08-29T18:56:11.068Z,2.85
2022-08-29T18:58:38.802Z,2.42
2022-08-29T19:01:13.369Z,2.38
2022-08-29T19:03:41.288Z,1.77
2022-08-29T19:06:08.882Z,2.50
2022-08-29T19:08:37.031Z,2.10
2022-08-29T19:11:06.637Z,2.38
2022-08-29T19:13:35.976Z,2.33
2022-08-29T19:16:05.499Z,2.60
2022-08-29T19:18:34.914Z,1.98
2022-08-29T19:21:06.305Z,2.00
2022-08-29T19:23:35.336Z,2.10
2022-08-29T19:26:04.482Z,1.90
2022-08-29T19:28:32.160Z,1.98
2022-08-29T19:31:01.083Z,1.73
2022-08-29T19:33:29.057Z,2.00
2022-08-29T19:35:58.393Z,1.95
2022-08-29T19:38:27.430Z,2.28
2022-08-29T19:40:56.534Z,2.10
2022-08-29T19:43:25.884Z,1.70
2022-08-29T19:45:54.413Z,2.28
2022-08-29T19:48:22.288Z,2.20
2022-08-29T19:50:51.532Z,1.60
2022-08-29T19:53:26.221Z,2.08
2022-08-29T19:55:54.395Z,1.92
2022-08-29T19:58:22.656Z,1.85
2022-08-29T20:00:56.460Z,2.03
2022-08-29T20:03:24.157Z,1.95
2022-08-29T20:05:51.722Z,1.95
2022-08-29T20:08:21.208Z,3.33
2022-08-29T20:10:50.397Z,2.05
2022-08-29T20:13:18.013Z,1.80
2022-08-29T20:15:45.851Z,2.10
2022-08-29T20:18:13.496Z,1.83
2022-08-29T20:20:41.141Z,1.55
2022-08-29T20:23:09.036Z,2.45
2022-08-29T20:25:36.960Z,2.20
2022-08-29T20:28:06.870Z,2.58
2022-08-29T20:30:35.281Z,2.00
2022-08-29T20:33:03.253Z,2.45
2022-08-29T20:35:48.809Z,2.00
2022-08-29T20:38:17.111Z,1.92
2022-08-29T20:40:46.792Z,2.33
2022-08-29T20:43:16.245Z,2.85
2022-08-29T20:45:43.962Z,3.00
2022-08-29T20:48:11.917Z,1.80
2022-08-29T20:50:39.614Z,1.90
2022-08-29T20:53:07.444Z,3.30
2022-08-29T20:55:35.553Z,1.90
2022-08-29T20:58:03.657Z,2.08
2022-08-29T21:00:32.754Z,1.85
2022-08-29T21:03:18.168Z,2.13
2022-08-29T21:05:45.855Z,1.60
2022-08-29T21:08:15.000Z,1.75
2022-08-29T21:10:43.295Z,1.80
2022-08-29T21:13:11.372Z,1.67
2022-08-29T21:15:41.258Z,1.73
2022-08-29T21:18:09.312Z,1.75
2022-08-29T21:20:37.139Z,2.25
2022-08-29T21:23:08.982Z,1.70
2022-08-29T21:25:41.164Z,1.75
2022-08-29T21:28:09.335Z,1.55
2022-08-29T21:30:40.447Z,1.67
2022-08-29T21:33:11.596Z,1.90
2022-08-29T21:35:40.441Z,1.90
2022-08-29T21:38:08.422Z,1.95
2022-08-29T21:40:36.428Z,3.15
2022-08-29T21:43:17.927Z,2.10
2022-08-29T21:45:45.683Z,1.40
2022-08-29T21:48:14.666Z,2.78
2022-08-29T21:50:43.083Z,1.70
2022-08-29T21:53:11.422Z,1.52
2022-08-29T21:55:39.427Z,2.67
2022-08-29T21:58:07.855Z,3.90
2022-08-29T22:00:36.684Z,1.90
2022-08-29T22:03:06.820Z,3.42
2022-08-29T22:05:35.996Z,1.90
2022-08-29T22:08:07.724Z,1.98
2022-08-29T22:10:41.466Z,1.83
2022-08-29T22:13:09.329Z,2.20
2022-08-29T22:15:54.873Z,2.08
2022-08-29T22:18:23.502Z,2.38
2022-08-29T22:20:55.016Z,2.15
2022-08-29T22:23:24.747Z,1.88
2022-08-29T22:25:53.749Z,2.47
2022-08-29T22:28:22.027Z,1.98
2022-08-29T22:30:49.972Z,1.70
2022-08-29T22:33:17.930Z,1.85
2022-08-29T22:35:45.890Z,2.95
2022-08-29T22:38:15.065Z,2.10
2022-08-29T22:40:44.301Z,1.83
2022-08-29T22:43:12.386Z,1.55
2022-08-29T22:45:41.260Z,1.60
2022-08-29T22:48:09.081Z,2.25
2022-08-29T22:50:37.024Z,1.80
2022-08-29T22:53:05.467Z,2.28
2022-08-29T22:55:34.574Z,2.22
2022-08-29T22:58:02.287Z,1.65
2022-08-29T23:00:30.999Z,2.17
2022-08-29T23:02:58.857Z,2.85
2022-08-29T23:05:26.984Z,2.35
2022-08-29T23:07:54.556Z,3.33
2022-08-29T23:10:22.396Z,1.70
2022-08-29T23:12:51.611Z,1.80
2022-08-29T23:15:19.748Z,1.63
2022-08-29T23:17:47.632Z,2.75
2022-08-29T23:20:16.849Z,2.05
2022-08-29T23:22:46.956Z,1.83
2022-08-29T23:25:16.575Z,2.08
2022-08-29T23:27:44.227Z,1.60
2022-08-29T23:30:14.305Z,1.70
2022-08-29T23:32:42.434Z,1.70
2022-08-29T23:35:10.546Z,2.20
2022-08-29T23:37:38.179Z,1.38
2022-08-29T23:40:06.884Z,2.45
2022-08-29T23:42:34.775Z,1.85
2022-08-29T23:45:02.420Z,2.63
2022-08-29T23:47:31.732Z,1.77
2022-08-29T23:50:00.900Z,1.77
2022-08-29T23:52:28.546Z,1.80
2022-08-29T23:54:56.194Z,1.80
2022-08-29T23:57:23.811Z,1.52
